sensor_id;sensor_type;location;lat;lon;timestamp;pressure;altitude;pressure_sealevel;temperature;humidity
73824;BME280;62154;54.914;73.444;2022-12-17T00:00:03;102054.78;;;-23.42;70.82
73824;BME280;62154;54.914;73.444;2022-12-17T00:02:49;102045.19;;;-23.41;71.05
73824;BME280;62154;54.914;73.444;2022-12-17T00:05:35;102032.97;;;-23.39;71.24
73824;BME280;62154;54.914;73.444;2022-12-17T00:08:21;102018.97;;;-23.40;71.38
73824;BME280;62154;54.914;73.444;2022-12-17T00:11:07;102000.44;;;-23.47;71.15
73824;BME280;62154;54.914;73.444;2022-12-17T00:13:52;102020.66;;;-23.42;70.94
73824;BME280;62154;54.914;73.444;2022-12-17T00:16:38;102019.75;;;-23.44;70.96
73824;BME280;62154;54.914;73.444;2022-12-17T00:19:29;102017.88;;;-23.48;71.28
73824;BME280;62154;54.914;73.444;2022-12-17T00:22:15;102011.81;;;-23.45;71.46
73824;BME280;62154;54.914;73.444;2022-12-17T00:25:01;101999.59;;;-23.45;71.43
73824;BME280;62154;54.914;73.444;2022-12-17T00:27:56;101934.91;;;-23.83;71.17
73824;BME280;62154;54.914;73.444;2022-12-17T00:30:42;101980.16;;;-23.53;71.58
73824;BME280;62154;54.914;73.444;2022-12-17T00:33:39;101985.50;;;-23.50;71.44
73824;BME280;62154;54.914;73.444;2022-12-17T00:36:25;101906.75;;;-23.93;71.13
73824;BME280;62154;54.914;73.444;2022-12-17T00:39:11;101991.84;;;-23.40;71.11
73824;BME280;62154;54.914;73.444;2022-12-17T00:42:02;101899.88;;;-23.85;70.97
73824;BME280;62154;54.914;73.444;2022-12-17T00:44:49;101977.97;;;-23.33;71.13
73824;BME280;62154;54.914;73.444;2022-12-17T00:47:39;101963.84;;;-23.40;71.11
73824;BME280;62154;54.914;73.444;2022-12-17T00:50:25;101954.22;;;-23.39;70.96
73824;BME280;62154;54.914;73.444;2022-12-17T00:53:16;101968.41;;;-23.31;70.78
73824;BME280;62154;54.914;73.444;2022-12-17T00:56:07;101925.00;;;-23.56;70.75
73824;BME280;62154;54.914;73.444;2022-12-17T00:58:53;101955.09;;;-23.40;71.03
73824;BME280;62154;54.914;73.444;2022-12-17T01:01:52;101882.59;;;-23.76;71.34
73824;BME280;62154;54.914;73.444;2022-12-17T01:04:38;101866.59;;;-23.89;71.06
73824;BME280;62154;54.914;73.444;2022-12-17T01:07:24;101941.94;;;-23.42;71.33
73824;BME280;62154;54.914;73.444;2022-12-17T01:10:24;101945.63;;;-23.32;71.33
73824;BME280;62154;54.914;73.444;2022-12-17T01:13:14;101927.13;;;-23.38;71.15
73824;BME280;62154;54.914;73.444;2022-12-17T01:16:04;101926.41;;;-23.33;71.53
73824;BME280;62154;54.914;73.444;2022-12-17T01:18:51;101929.03;;;-23.31;71.10
73824;BME280;62154;54.914;73.444;2022-12-17T01:21:36;101923.72;;;-23.34;70.99
73824;BME280;62154;54.914;73.444;2022-12-17T01:24:22;101876.94;;;-23.55;71.20
73824;BME280;62154;54.914;73.444;2022-12-17T01:27:13;101944.78;;;-23.31;71.49
73824;BME280;62154;54.914;73.444;2022-12-17T01:30:04;101928.22;;;-23.28;71.59
73824;BME280;62154;54.914;73.444;2022-12-17T01:33:01;101925.72;;;-23.22;71.27
73824;BME280;62154;54.914;73.444;2022-12-17T01:35:48;101848.47;;;-23.78;71.21
73824;BME280;62154;54.914;73.444;2022-12-17T01:38:34;101925.56;;;-23.30;71.41
73824;BME280;62154;54.914;73.444;2022-12-17T01:41:34;101829.16;;;-23.82;71.26
73824;BME280;62154;54.914;73.444;2022-12-17T01:44:45;101929.06;;;-23.29;71.41
73824;BME280;62154;54.914;73.444;2022-12-17T01:47:58;101911.78;;;-23.20;71.91
73824;BME280;62154;54.914;73.444;2022-12-17T01:50:53;101912.84;;;-23.08;71.81
73824;BME280;62154;54.914;73.444;2022-12-17T01:53:53;101841.19;;;-23.49;71.57
73824;BME280;62154;54.914;73.444;2022-12-17T01:56:41;101918.09;;;-23.08;70.98
73824;BME280;62154;54.914;73.444;2022-12-17T01:59:55;101892.34;;;-23.28;70.85
73824;BME280;62154;54.914;73.444;2022-12-17T02:02:43;101895.72;;;-23.35;71.17
73824;BME280;62154;54.914;73.444;2022-12-17T02:05:38;101810.09;;;-23.74;71.65
73824;BME280;62154;54.914;73.444;2022-12-17T02:08:40;101810.94;;;-23.75;71.65
73824;BME280;62154;54.914;73.444;2022-12-17T02:11:43;101904.00;;;-23.12;71.60
73824;BME280;62154;54.914;73.444;2022-12-17T02:14:56;101909.44;;;-23.03;71.43
73824;BME280;62154;54.914;73.444;2022-12-17T02:17:48;101911.22;;;-23.00;71.17
73824;BME280;62154;54.914;73.444;2022-12-17T02:20:40;101898.06;;;-23.02;70.68
73824;BME280;62154;54.914;73.444;2022-12-17T02:23:40;101907.59;;;-23.07;70.61
73824;BME280;62154;54.914;73.444;2022-12-17T02:26:50;101882.66;;;-23.32;70.72
73824;BME280;62154;54.914;73.444;2022-12-17T02:29:47;101887.91;;;-23.32;70.33
73824;BME280;62154;54.914;73.444;2022-12-17T02:32:36;101835.97;;;-23.90;70.86
73824;BME280;62154;54.914;73.444;2022-12-17T02:35:30;101737.19;;;-24.35;70.75
73824;BME280;62154;54.914;73.444;2022-12-17T02:38:29;101801.88;;;-23.90;71.45
73824;BME280;62154;54.914;73.444;2022-12-17T02:41:23;101899.19;;;-23.36;71.27
73824;BME280;62154;54.914;73.444;2022-12-17T02:44:16;101878.13;;;-23.39;71.70
73824;BME280;62154;54.914;73.444;2022-12-17T02:47:05;101889.00;;;-23.21;71.85
73824;BME280;62154;54.914;73.444;2022-12-17T02:49:52;101887.31;;;-23.14;71.69
73824;BME280;62154;54.914;73.444;2022-12-17T02:52:47;101884.84;;;-23.06;71.65
73824;BME280;62154;54.914;73.444;2022-12-17T02:55:35;101888.53;;;-22.98;71.34
73824;BME280;62154;54.914;73.444;2022-12-17T02:58:21;101882.41;;;-22.97;71.09
73824;BME280;62154;54.914;73.444;2022-12-17T03:01:07;101864.78;;;-23.04;71.24
73824;BME280;62154;54.914;73.444;2022-12-17T03:03:54;101871.84;;;-22.99;70.71
73824;BME280;62154;54.914;73.444;2022-12-17T03:06:41;101853.16;;;-23.19;70.97
73824;BME280;62154;54.914;73.444;2022-12-17T03:09:26;101793.56;;;-23.69;70.70
73824;BME280;62154;54.914;73.444;2022-12-17T03:12:12;101879.47;;;-23.12;71.40
73824;BME280;62154;54.914;73.444;2022-12-17T03:15:05;101883.88;;;-23.11;71.32
73824;BME280;62154;54.914;73.444;2022-12-17T03:17:53;101810.31;;;-23.62;70.54
73824;BME280;62154;54.914;73.444;2022-12-17T03:20:42;101871.34;;;-23.28;70.91
73824;BME280;62154;54.914;73.444;2022-12-17T03:23:28;101775.72;;;-23.88;70.89
73824;BME280;62154;54.914;73.444;2022-12-17T03:26:13;101860.78;;;-23.33;71.72
73824;BME280;62154;54.914;73.444;2022-12-17T03:29:00;101856.53;;;-23.24;72.46
73824;BME280;62154;54.914;73.444;2022-12-17T03:31:46;101856.78;;;-23.10;72.52
73824;BME280;62154;54.914;73.444;2022-12-17T03:34:32;101850.94;;;-22.94;72.20
73824;BME280;62154;54.914;73.444;2022-12-17T03:37:23;101839.56;;;-22.94;71.67
73824;BME280;62154;54.914;73.444;2022-12-17T03:40:09;101864.44;;;-22.74;71.80
73824;BME280;62154;54.914;73.444;2022-12-17T03:42:55;101858.44;;;-22.67;71.57
73824;BME280;62154;54.914;73.444;2022-12-17T03:45:52;101855.09;;;-22.58;71.56
73824;BME280;62154;54.914;73.444;2022-12-17T03:48:38;101813.56;;;-22.77;71.54
73824;BME280;62154;54.914;73.444;2022-12-17T03:51:24;101860.69;;;-22.36;71.80
73824;BME280;62154;54.914;73.444;2022-12-17T03:54:12;101871.31;;;-22.25;71.67
73824;BME280;62154;54.914;73.444;2022-12-17T03:56:58;101771.72;;;-22.67;71.62
73824;BME280;62154;54.914;73.444;2022-12-17T03:59:44;101842.59;;;-22.11;71.47
73824;BME280;62154;54.914;73.444;2022-12-17T04:02:38;101854.16;;;-22.00;70.82
73824;BME280;62154;54.914;73.444;2022-12-17T04:05:24;101842.50;;;-22.18;70.34
73824;BME280;62154;54.914;73.444;2022-12-17T04:08:10;101827.34;;;-22.39;70.00
73824;BME280;62154;54.914;73.444;2022-12-17T04:10:56;101864.13;;;-22.40;69.39
73824;BME280;62154;54.914;73.444;2022-12-17T04:14:12;101865.53;;;-22.61;69.60
73824;BME280;62154;54.914;73.444;2022-12-17T04:17:15;101867.09;;;-22.72;69.79
73824;BME280;62154;54.914;73.444;2022-12-17T04:20:02;101854.38;;;-22.98;69.82
73824;BME280;62154;54.914;73.444;2022-12-17T04:22:48;101778.22;;;-23.49;70.00
73824;BME280;62154;54.914;73.444;2022-12-17T04:25:33;101863.06;;;-23.02;70.49
73824;BME280;62154;54.914;73.444;2022-12-17T04:28:19;101849.75;;;-23.11;70.40
73824;BME280;62154;54.914;73.444;2022-12-17T04:31:15;101849.81;;;-23.08;71.04
73824;BME280;62154;54.914;73.444;2022-12-17T04:34:01;101853.56;;;-22.95;71.10
73824;BME280;62154;54.914;73.444;2022-12-17T04:36:46;101852.72;;;-22.93;71.05
73824;BME280;62154;54.914;73.444;2022-12-17T04:39:32;101837.91;;;-22.89;70.97
73824;BME280;62154;54.914;73.444;2022-12-17T04:42:18;101824.69;;;-22.92;71.11
73824;BME280;62154;54.914;73.444;2022-12-17T04:45:03;101817.88;;;-22.83;71.63
73824;BME280;62154;54.914;73.444;2022-12-17T04:47:49;101795.16;;;-22.80;71.83
73824;BME280;62154;54.914;73.444;2022-12-17T04:50:35;101803.28;;;-22.63;72.28
73824;BME280;62154;54.914;73.444;2022-12-17T04:53:20;101815.03;;;-22.41;72.40
73824;BME280;62154;54.914;73.444;2022-12-17T04:56:06;101809.13;;;-22.25;72.30
73824;BME280;62154;54.914;73.444;2022-12-17T04:58:51;101800.69;;;-22.01;72.27
73824;BME280;62154;54.914;73.444;2022-12-17T05:01:37;101791.22;;;-21.85;72.14
73824;BME280;62154;54.914;73.444;2022-12-17T05:04:23;101782.63;;;-21.71;71.98
73824;BME280;62154;54.914;73.444;2022-12-17T05:07:08;101771.25;;;-21.69;71.59
73824;BME280;62154;54.914;73.444;2022-12-17T05:10:06;101789.75;;;-21.64;71.70
73824;BME280;62154;54.914;73.444;2022-12-17T05:13:01;101768.81;;;-21.52;72.45
73824;BME280;62154;54.914;73.444;2022-12-17T05:15:55;101760.16;;;-21.38;72.26
73824;BME280;62154;54.914;73.444;2022-12-17T05:18:40;101779.63;;;-21.24;71.88
73824;BME280;62154;54.914;73.444;2022-12-17T05:21:37;101772.66;;;-21.19;72.23
73824;BME280;62154;54.914;73.444;2022-12-17T05:24:28;101677.41;;;-21.68;72.13
73824;BME280;62154;54.914;73.444;2022-12-17T05:27:18;101765.72;;;-21.09;72.25
73824;BME280;62154;54.914;73.444;2022-12-17T05:30:09;101754.41;;;-20.97;72.69
73824;BME280;62154;54.914;73.444;2022-12-17T05:33:01;101749.22;;;-20.88;72.22
73824;BME280;62154;54.914;73.444;2022-12-17T05:35:59;101742.13;;;-20.95;72.14
73824;BME280;62154;54.914;73.444;2022-12-17T05:38:50;101656.56;;;-21.42;72.19
73824;BME280;62154;54.914;73.444;2022-12-17T05:41:45;101734.38;;;-20.78;72.20
73824;BME280;62154;54.914;73.444;2022-12-17T05:44:31;101720.34;;;-20.69;72.15
73824;BME280;62154;54.914;73.444;2022-12-17T05:47:16;101651.66;;;-20.95;71.63
73824;BME280;62154;54.914;73.444;2022-12-17T05:50:07;101728.41;;;-20.47;71.22
73824;BME280;62154;54.914;73.444;2022-12-17T05:52:56;101722.25;;;-20.46;71.38
73824;BME280;62154;54.914;73.444;2022-12-17T05:55:48;101722.28;;;-20.40;71.40
73824;BME280;62154;54.914;73.444;2022-12-17T05:58:44;101625.34;;;-20.88;71.56
73824;BME280;62154;54.914;73.444;2022-12-17T06:01:30;101713.50;;;-20.38;71.42
73824;BME280;62154;54.914;73.444;2022-12-17T06:04:16;101626.25;;;-20.84;71.29
73824;BME280;62154;54.914;73.444;2022-12-17T06:07:04;101702.97;;;-20.33;71.72
73824;BME280;62154;54.914;73.444;2022-12-17T06:09:50;101705.66;;;-20.25;71.73
73824;BME280;62154;54.914;73.444;2022-12-17T06:12:42;101687.19;;;-20.28;71.94
73824;BME280;62154;54.914;73.444;2022-12-17T06:15:33;101674.03;;;-20.22;71.97
73824;BME280;62154;54.914;73.444;2022-12-17T06:18:19;101536.63;;;-20.89;71.55
73824;BME280;62154;54.914;73.444;2022-12-17T06:21:05;101680.28;;;-19.92;72.00
73824;BME280;62154;54.914;73.444;2022-12-17T06:24:10;101692.66;;;-19.82;71.92
73824;BME280;62154;54.914;73.444;2022-12-17T06:26:56;101606.34;;;-20.09;72.28
73824;BME280;62154;54.914;73.444;2022-12-17T06:29:49;101620.47;;;-19.85;71.90
73824;BME280;62154;54.914;73.444;2022-12-17T06:32:35;101673.31;;;-19.48;70.51
73824;BME280;62154;54.914;73.444;2022-12-17T06:35:20;101687.41;;;-19.54;69.90
73824;BME280;62154;54.914;73.444;2022-12-17T06:38:06;101611.63;;;-20.03;70.73
73824;BME280;62154;54.914;73.444;2022-12-17T06:40:52;101689.16;;;-19.55;70.73
73824;BME280;62154;54.914;73.444;2022-12-17T06:43:49;101689.16;;;-19.47;70.33
73824;BME280;62154;54.914;73.444;2022-12-17T06:46:45;101704.13;;;-19.43;70.18
73824;BME280;62154;54.914;73.444;2022-12-17T06:49:31;101689.16;;;-19.45;69.69
73824;BME280;62154;54.914;73.444;2022-12-17T06:52:17;101683.00;;;-19.50;69.32
73824;BME280;62154;54.914;73.444;2022-12-17T06:55:08;101709.44;;;-19.41;69.31
73824;BME280;62154;54.914;73.444;2022-12-17T06:57:57;101705.84;;;-19.63;68.17
73824;BME280;62154;54.914;73.444;2022-12-17T07:00:43;101688.22;;;-19.72;69.41
73824;BME280;62154;54.914;73.444;2022-12-17T07:03:34;101704.09;;;-19.67;69.34
73824;BME280;62154;54.914;73.444;2022-12-17T07:06:20;101710.25;;;-19.67;69.63
73824;BME280;62154;54.914;73.444;2022-12-17T07:09:16;101648.56;;;-20.06;69.34
73824;BME280;62154;54.914;73.444;2022-12-17T07:12:10;101705.81;;;-19.76;69.78
73824;BME280;62154;54.914;73.444;2022-12-17T07:14:56;101712.00;;;-19.75;69.91
73824;BME280;62154;54.914;73.444;2022-12-17T07:17:42;101705.00;;;-19.65;70.60
73824;BME280;62154;54.914;73.444;2022-12-17T07:20:52;101699.72;;;-19.58;69.73
73824;BME280;62154;54.914;73.444;2022-12-17T07:23:41;101694.47;;;-19.51;69.81
73824;BME280;62154;54.914;73.444;2022-12-17T07:26:27;101685.63;;;-19.54;69.69
73824;BME280;62154;54.914;73.444;2022-12-17T07:29:14;101698.88;;;-19.41;69.90
73824;BME280;62154;54.914;73.444;2022-12-17T07:31:59;101698.88;;;-19.32;69.52
73824;BME280;62154;54.914;73.444;2022-12-17T07:34:45;101624.00;;;-19.66;69.53
73824;BME280;62154;54.914;73.444;2022-12-17T07:37:31;101693.59;;;-19.29;68.84
73824;BME280;62154;54.914;73.444;2022-12-17T07:40:20;101701.53;;;-19.16;68.98
73824;BME280;62154;54.914;73.444;2022-12-17T07:43:12;101691.84;;;-19.21;68.68
73824;BME280;62154;54.914;73.444;2022-12-17T07:45:58;101701.50;;;-19.29;68.43
73824;BME280;62154;54.914;73.444;2022-12-17T07:48:43;101705.94;;;-19.29;68.70
73824;BME280;62154;54.914;73.444;2022-12-17T07:51:38;101649.53;;;-19.59;69.25
73824;BME280;62154;54.914;73.444;2022-12-17T07:54:24;101632.78;;;-19.57;69.48
73824;BME280;62154;54.914;73.444;2022-12-17T07:57:10;101684.78;;;-19.29;68.96
73824;BME280;62154;54.914;73.444;2022-12-17T08:00:09;101683.91;;;-19.27;69.16
73824;BME280;62154;54.914;73.444;2022-12-17T08:03:07;101702.41;;;-19.19;69.53
73824;BME280;62154;54.914;73.444;2022-12-17T08:05:58;101691.84;;;-19.22;69.67
73824;BME280;62154;54.914;73.444;2022-12-17T08:08:56;101628.41;;;-19.56;69.11
73824;BME280;62154;54.914;73.444;2022-12-17T08:11:50;101701.53;;;-18.96;69.52
73824;BME280;62154;54.914;73.444;2022-12-17T08:14:35;101631.06;;;-19.25;69.21
73824;BME280;62154;54.914;73.444;2022-12-17T08:17:31;101683.88;;;-18.83;69.66
73824;BME280;62154;54.914;73.444;2022-12-17T08:20:28;101675.94;;;-18.74;69.36
73824;BME280;62154;54.914;73.444;2022-12-17T08:23:13;101580.00;;;-19.32;68.90
73824;BME280;62154;54.914;73.444;2022-12-17T08:25:59;101669.78;;;-18.82;68.94
73824;BME280;62154;54.914;73.444;2022-12-17T08:28:45;101668.88;;;-18.80;69.13
73824;BME280;62154;54.914;73.444;2022-12-17T08:31:32;101672.41;;;-18.68;69.41
73824;BME280;62154;54.914;73.444;2022-12-17T08:34:19;101581.75;;;-19.18;69.26
73824;BME280;62154;54.914;73.444;2022-12-17T08:37:09;101661.81;;;-18.62;69.40
73824;BME280;62154;54.914;73.444;2022-12-17T08:39:54;101667.97;;;-18.52;69.12
73824;BME280;62154;54.914;73.444;2022-12-17T08:42:41;101659.13;;;-18.45;68.98
73824;BME280;62154;54.914;73.444;2022-12-17T08:45:30;101594.84;;;-18.84;68.73
73824;BME280;62154;54.914;73.444;2022-12-17T08:48:20;101656.47;;;-18.47;68.79
73824;BME280;62154;54.914;73.444;2022-12-17T08:51:17;101635.31;;;-18.44;69.41
73824;BME280;62154;54.914;73.444;2022-12-17T08:54:08;101617.69;;;-18.46;68.70
73824;BME280;62154;54.914;73.444;2022-12-17T08:56:56;101618.53;;;-18.38;69.03
73824;BME280;62154;54.914;73.444;2022-12-17T08:59:42;101636.09;;;-18.18;69.40
73824;BME280;62154;54.914;73.444;2022-12-17T09:02:28;101617.53;;;-18.09;68.79
73824;BME280;62154;54.914;73.444;2022-12-17T09:05:22;101613.09;;;-18.06;68.57
73824;BME280;62154;54.914;73.444;2022-12-17T09:08:19;101621.81;;;-17.91;68.65
73824;BME280;62154;54.914;73.444;2022-12-17T09:11:16;101633.34;;;-17.97;67.94
73824;BME280;62154;54.914;73.444;2022-12-17T09:14:02;101641.34;;;-18.03;67.68
73824;BME280;62154;54.914;73.444;2022-12-17T09:16:59;101548.94;;;-18.52;67.66
73824;BME280;62154;54.914;73.444;2022-12-17T09:19:46;101612.28;;;-18.18;67.30
73824;BME280;62154;54.914;73.444;2022-12-17T09:22:33;101632.56;;;-18.17;67.02
73824;BME280;62154;54.914;73.444;2022-12-17T09:25:24;101615.84;;;-18.29;67.58
73824;BME280;62154;54.914;73.444;2022-12-17T09:28:11;101645.81;;;-18.25;67.03
73824;BME280;62154;54.914;73.444;2022-12-17T09:31:16;101645.00;;;-18.38;66.70
73824;BME280;62154;54.914;73.444;2022-12-17T09:34:02;101640.63;;;-18.59;66.35
73824;BME280;62154;54.914;73.444;2022-12-17T09:36:53;101631.84;;;-18.67;66.59
73824;BME280;62154;54.914;73.444;2022-12-17T09:39:39;101627.47;;;-18.82;67.13
73824;BME280;62154;54.914;73.444;2022-12-17T09:42:38;101654.78;;;-18.79;66.76
73824;BME280;62154;54.914;73.444;2022-12-17T09:46:16;101659.25;;;-18.92;66.35
73824;BME280;62154;54.914;73.444;2022-12-17T09:49:17;101629.31;;;-19.15;66.18
73824;BME280;62154;54.914;73.444;2022-12-17T09:52:25;101637.22;;;-19.08;66.29
73824;BME280;62154;54.914;73.444;2022-12-17T09:55:20;101637.22;;;-19.06;67.10
73824;BME280;62154;54.914;73.444;2022-12-17T09:58:25;101573.81;;;-19.56;66.33
73824;BME280;62154;54.914;73.444;2022-12-17T10:01:17;101642.50;;;-19.28;66.16
73824;BME280;62154;54.914;73.444;2022-12-17T10:04:32;101637.25;;;-19.32;66.50
73824;BME280;62154;54.914;73.444;2022-12-17T10:07:24;101549.19;;;-19.79;67.15
73824;BME280;62154;54.914;73.444;2022-12-17T10:10:21;101595.81;;;-19.43;66.59
73824;BME280;62154;54.914;73.444;2022-12-17T10:13:10;101622.25;;;-19.41;66.69
73824;BME280;62154;54.914;73.444;2022-12-17T10:15:57;101616.97;;;-19.55;66.92
73824;BME280;62154;54.914;73.444;2022-12-17T10:18:44;101613.44;;;-19.57;66.88
73824;BME280;62154;54.914;73.444;2022-12-17T10:21:40;101594.94;;;-19.57;67.33
73824;BME280;62154;54.914;73.444;2022-12-17T10:24:26;101524.56;;;-19.86;67.23
73824;BME280;62154;54.914;73.444;2022-12-17T10:27:17;101492.88;;;-20.06;67.39
73824;BME280;62154;54.914;73.444;2022-12-17T10:30:04;101558.88;;;-19.61;67.88
73824;BME280;62154;54.914;73.444;2022-12-17T10:33:10;101580.00;;;-19.47;67.78
73824;BME280;62154;54.914;73.444;2022-12-17T10:36:21;101585.25;;;-19.44;67.57
73824;BME280;62154;54.914;73.444;2022-12-17T10:39:21;101619.59;;;-19.50;67.27
73824;BME280;62154;54.914;73.444;2022-12-17T10:42:28;101629.28;;;-19.56;66.67
73824;BME280;62154;54.914;73.444;2022-12-17T10:45:25;101634.56;;;-19.63;66.54
73824;BME280;62154;54.914;73.444;2022-12-17T10:48:27;101638.94;;;-19.75;66.57
73824;BME280;62154;54.914;73.444;2022-12-17T10:54:16;101650.38;;;-19.96;66.40
73824;BME280;62154;54.914;73.444;2022-12-17T10:57:05;101612.41;;;-20.40;66.71
73824;BME280;62154;54.914;73.444;2022-12-17T11:00:02;101653.81;;;-20.14;66.45
73824;BME280;62154;54.914;73.444;2022-12-17T11:02:53;101655.53;;;-20.25;66.10
73824;BME280;62154;54.914;73.444;2022-12-17T11:05:55;101643.13;;;-20.43;66.60
73824;BME280;62154;54.914;73.444;2022-12-17T11:08:42;101666.00;;;-20.42;67.00
73824;BME280;62154;54.914;73.444;2022-12-17T11:11:28;101661.56;;;-20.48;67.44
73824;BME280;62154;54.914;73.444;2022-12-17T11:14:32;101656.31;;;-20.45;67.73
73824;BME280;62154;54.914;73.444;2022-12-17T11:17:31;101641.34;;;-20.54;67.54
73824;BME280;62154;54.914;73.444;2022-12-17T11:20:39;101635.13;;;-20.62;67.63
73824;BME280;62154;54.914;73.444;2022-12-17T11:23:30;101621.94;;;-20.74;68.14
73824;BME280;62154;54.914;73.444;2022-12-17T11:26:20;101650.94;;;-20.63;69.03
73824;BME280;62154;54.914;73.444;2022-12-17T11:29:11;101575.22;;;-21.00;69.04
73824;BME280;62154;54.914;73.444;2022-12-17T11:35:24;101618.47;;;-20.55;68.56
73824;BME280;62154;54.914;73.444;2022-12-17T11:38:33;101603.47;;;-20.74;68.83
73824;BME280;62154;54.914;73.444;2022-12-17T11:41:29;101649.25;;;-20.52;68.88
73824;BME280;62154;54.914;73.444;2022-12-17T11:50:42;101615.88;;;-20.47;68.70
73824;BME280;62154;54.914;73.444;2022-12-17T11:57:10;101607.03;;;-20.58;68.79
73824;BME280;62154;54.914;73.444;2022-12-17T12:00:26;101629.91;;;-20.53;68.97
73824;BME280;62154;54.914;73.444;2022-12-17T12:03:34;101530.41;;;-21.02;68.73
73824;BME280;62154;54.914;73.444;2022-12-17T12:22:23;101531.25;;;-21.10;69.30
73824;BME280;62154;54.914;73.444;2022-12-17T12:25:48;101607.88;;;-20.62;68.77
73824;BME280;62154;54.914;73.444;2022-12-17T12:34:38;101599.97;;;-20.62;68.87
73824;BME280;62154;54.914;73.444;2022-12-17T12:37:27;101599.09;;;-20.67;68.94
73824;BME280;62154;54.914;73.444;2022-12-17T12:40:18;101624.63;;;-20.56;69.07
73824;BME280;62154;54.914;73.444;2022-12-17T12:43:29;101625.50;;;-20.55;68.54
73824;BME280;62154;54.914;73.444;2022-12-17T12:46:37;101612.34;;;-20.55;68.61
73824;BME280;62154;54.914;73.444;2022-12-17T12:49:30;101620.22;;;-20.57;68.50
73824;BME280;62154;54.914;73.444;2022-12-17T12:52:23;101463.47;;;-21.44;68.26
73824;BME280;62154;54.914;73.444;2022-12-17T12:55:11;101606.19;;;-20.54;68.69
73824;BME280;62154;54.914;73.444;2022-12-17T12:58:02;101617.59;;;-20.52;68.68
73824;BME280;62154;54.914;73.444;2022-12-17T13:03:47;101606.19;;;-20.54;68.84
73824;BME280;62154;54.914;73.444;2022-12-17T13:11:45;101517.28;;;-20.95;68.66
73824;BME280;62154;54.914;73.444;2022-12-17T13:14:27;101578.03;;;-20.57;68.95
73824;BME280;62154;54.914;73.444;2022-12-17T13:16:56;101590.41;;;-20.43;68.73
73824;BME280;62154;54.914;73.444;2022-12-17T13:19:35;101609.72;;;-20.44;68.56
73824;BME280;62154;54.914;73.444;2022-12-17T13:24:47;101531.38;;;-20.86;68.08
73824;BME280;62154;54.914;73.444;2022-12-17T13:38:20;101609.72;;;-20.47;68.03
73824;BME280;62154;54.914;73.444;2022-12-17T13:41:05;101627.34;;;-20.39;68.08
73824;BME280;62154;54.914;73.444;2022-12-17T13:43:43;101622.09;;;-20.31;68.29
73824;BME280;62154;54.914;73.444;2022-12-17T13:46:24;101621.25;;;-20.19;68.23
73824;BME280;62154;54.914;73.444;2022-12-17T13:49:01;101523.56;;;-20.55;68.39
73824;BME280;62154;54.914;73.444;2022-12-17T13:51:32;101620.47;;;-19.89;68.92
73824;BME280;62154;54.914;73.444;2022-12-17T13:54:03;101612.56;;;-19.72;68.65
73824;BME280;62154;54.914;73.444;2022-12-17T13:56:40;101614.34;;;-19.49;68.38
73824;BME280;62154;54.914;73.444;2022-12-17T13:59:31;101616.09;;;-19.34;67.64
73824;BME280;62154;54.914;73.444;2022-12-17T14:04:54;101594.06;;;-19.27;67.02
73824;BME280;62154;54.914;73.444;2022-12-17T14:07:28;101619.63;;;-19.07;66.70
73824;BME280;62154;54.914;73.444;2022-12-17T14:09:56;101595.81;;;-19.18;66.62
73824;BME280;62154;54.914;73.444;2022-12-17T14:12:25;101616.94;;;-19.02;66.67
73824;BME280;62154;54.914;73.444;2022-12-17T14:15:05;101623.13;;;-18.94;67.12
73824;BME280;62154;54.914;73.444;2022-12-17T14:17:46;101571.16;;;-19.20;67.12
73824;BME280;62154;54.914;73.444;2022-12-17T14:20:28;101628.34;;;-18.79;67.01
73824;BME280;62154;54.914;73.444;2022-12-17T14:23:02;101603.69;;;-18.79;67.13
73824;BME280;62154;54.914;73.444;2022-12-17T14:25:39;101615.97;;;-18.64;67.38
73824;BME280;62154;54.914;73.444;2022-12-17T14:28:29;101621.22;;;-18.52;67.30
73824;BME280;62154;54.914;73.444;2022-12-17T14:31:24;101620.34;;;-18.46;67.27
73824;BME280;62154;54.914;73.444;2022-12-17T14:34:04;101523.47;;;-18.84;67.12
73824;BME280;62154;54.914;73.444;2022-12-17T14:36:39;101600.91;;;-18.45;67.08
73824;BME280;62154;54.914;73.444;2022-12-17T14:39:20;101567.44;;;-18.62;67.30
73824;BME280;62154;54.914;73.444;2022-12-17T14:41:48;101622.84;;;-18.20;67.29
73824;BME280;62154;54.914;73.444;2022-12-17T14:44:34;101524.28;;;-18.67;67.08
73824;BME280;62154;54.914;73.444;2022-12-17T14:49:36;101587.53;;;-18.13;67.57
73824;BME280;62154;54.914;73.444;2022-12-17T14:52:44;101602.47;;;-17.98;67.37
73824;BME280;62154;54.914;73.444;2022-12-17T14:57:50;101647.31;;;-17.73;67.34
73824;BME280;62154;54.914;73.444;2022-12-17T15:00:27;101643.78;;;-17.74;66.91
73824;BME280;62154;54.914;73.444;2022-12-17T15:02:55;101634.13;;;-17.82;66.68
73824;BME280;62154;54.914;73.444;2022-12-17T15:05:22;101642.09;;;-17.85;66.73
73824;BME280;62154;54.914;73.444;2022-12-17T15:07:50;101650.94;;;-17.86;66.82
73824;BME280;62154;54.914;73.444;2022-12-17T15:10:27;101602.59;;;-18.26;67.02
73824;BME280;62154;54.914;73.444;2022-12-17T15:12:56;101584.13;;;-18.35;67.08
73824;BME280;62154;54.914;73.444;2022-12-17T15:15:23;101584.97;;;-18.28;67.78
73824;BME280;62154;54.914;73.444;2022-12-17T15:17:50;101605.19;;;-18.16;67.95
73824;BME280;62154;54.914;73.444;2022-12-17T15:20:19;101655.28;;;-17.76;68.28
73824;BME280;62154;54.914;73.444;2022-12-17T15:22:50;101646.47;;;-17.81;68.36
73824;BME280;62154;54.914;73.444;2022-12-17T15:25:28;101666.72;;;-17.71;68.86
73824;BME280;62154;54.914;73.444;2022-12-17T15:28:05;101654.34;;;-17.67;68.76
73824;BME280;62154;54.914;73.444;2022-12-17T15:30:37;101649.94;;;-17.73;69.35